createdAt,value
2019-01-13T20:23:53.468Z,61.60
2019-01-13T20:26:23.154Z,62.60
2019-01-13T20:28:52.750Z,72.40
2019-01-13T20:31:22.355Z,80.00
2019-01-13T20:33:51.939Z,85.50
2019-01-13T20:36:22.607Z,87.30
2019-01-13T20:38:52.194Z,90.00
2019-01-13T20:41:21.790Z,90.60
2019-01-13T20:43:51.388Z,91.10
2019-01-13T20:46:20.987Z,91.10
2019-01-13T20:48:50.584Z,91.40
2019-01-13T20:51:20.175Z,91.30
2019-01-13T20:53:49.759Z,91.10
2019-01-13T20:56:19.373Z,90.90
2019-01-13T20:58:48.958Z,91.20
2019-01-13T21:01:18.559Z,91.30
2019-01-13T21:03:48.155Z,91.10
2019-01-13T21:06:17.827Z,91.50
2019-01-13T21:08:47.432Z,91.20
2019-01-13T21:11:17.020Z,91.50
2019-01-13T21:13:46.625Z,91.30
2019-01-13T21:16:16.202Z,91.50
2019-01-13T21:18:47.451Z,91.40
2019-01-13T21:21:17.171Z,91.80
2019-01-13T21:23:46.775Z,91.30
2019-01-13T21:26:16.391Z,91.70
2019-01-13T21:28:46.031Z,91.90
2019-01-13T21:31:15.612Z,91.70
2019-01-13T21:33:45.274Z,91.90
2019-01-13T21:36:14.862Z,91.70
2019-01-13T21:38:44.505Z,91.70
2019-01-13T21:41:14.274Z,91.80
2019-01-13T21:43:43.896Z,91.60
2019-01-13T21:46:13.593Z,91.30
2019-01-13T21:48:43.190Z,91.10
2019-01-13T21:51:12.782Z,90.90
2019-01-13T21:53:43.259Z,91.20
2019-01-13T21:56:12.967Z,91.10
2019-01-13T21:58:42.554Z,90.80
2019-01-13T22:01:12.230Z,91.10
2019-01-13T22:03:41.824Z,91.10
2019-01-13T22:06:11.436Z,91.20
2019-01-13T22:08:41.036Z,91.10
2019-01-13T22:11:10.635Z,91.10
2019-01-13T22:13:40.227Z,91.10
2019-01-13T22:16:09.839Z,91.00
2019-01-13T22:18:39.427Z,91.00
2019-01-13T22:21:09.097Z,90.80
2019-01-13T22:23:38.708Z,90.90
2019-01-13T22:26:08.310Z,91.10
2019-01-13T22:28:38.870Z,90.80
2019-01-13T22:31:08.469Z,91.00
2019-01-13T22:33:38.071Z,90.90
2019-01-13T22:36:07.654Z,91.00
2019-01-13T22:38:38.520Z,91.00
2019-01-13T22:41:08.117Z,91.00
2019-01-13T22:43:37.724Z,90.60
2019-01-13T22:46:07.318Z,90.50
2019-01-13T22:48:36.913Z,90.20
2019-01-13T22:51:06.518Z,89.90
2019-01-13T22:53:36.106Z,90.10
2019-01-13T22:56:05.702Z,90.20
2019-01-13T22:58:35.306Z,90.20
2019-01-13T23:01:15.990Z,90.40
2019-01-13T23:03:45.668Z,90.40
2019-01-13T23:06:15.279Z,90.60
2019-01-13T23:08:44.878Z,90.40
2019-01-13T23:11:14.468Z,90.30
2019-01-13T23:13:44.066Z,89.60
2019-01-13T23:16:13.658Z,89.20
2019-01-13T23:18:43.260Z,89.80
2019-01-13T23:21:12.842Z,90.00
2019-01-13T23:23:42.446Z,89.40
2019-01-13T23:26:12.036Z,90.10
2019-01-13T23:28:41.648Z,90.10
2019-01-13T23:31:11.250Z,89.30
2019-01-13T23:33:40.852Z,90.10
2019-01-13T23:36:10.445Z,90.30
2019-01-13T23:38:40.046Z,90.40
2019-01-13T23:41:09.649Z,90.30
2019-01-13T23:43:39.246Z,90.20
2019-01-13T23:46:08.852Z,90.20
2019-01-13T23:48:38.461Z,90.60
2019-01-13T23:51:08.074Z,90.30
2019-01-13T23:53:37.678Z,90.30
2019-01-13T23:56:07.285Z,90.20
2019-01-13T23:58:36.876Z,90.10
